createdAt,value
2022-11-25T00:05:09.094Z,0.80
2022-11-25T00:10:30.756Z,0.80
2022-11-25T00:15:52.506Z,0.70
2022-11-25T00:21:18.547Z,0.52
2022-11-25T00:26:40.498Z,0.77
2022-11-25T00:32:02.237Z,0.52
2022-11-25T00:37:23.968Z,0.70
2022-11-25T00:43:04.128Z,0.60
2022-11-25T00:48:25.861Z,0.73
2022-11-25T00:53:47.541Z,0.70
2022-11-25T00:59:09.663Z,0.50
2022-11-25T01:04:31.504Z,0.60
2022-11-25T01:09:53.197Z,0.70
2022-11-25T01:15:14.868Z,0.80
2022-11-25T01:20:36.507Z,0.55
2022-11-25T01:26:01.856Z,0.80
2022-11-25T01:31:25.676Z,0.80
2022-11-25T01:36:48.145Z,0.80
2022-11-25T01:42:09.860Z,0.50
2022-11-25T01:47:31.590Z,0.50
2022-11-25T01:52:55.780Z,0.52
2022-11-25T01:58:33.848Z,0.40
2022-11-25T02:03:59.230Z,0.60
2022-11-25T02:09:22.003Z,0.40
2022-11-25T02:14:45.883Z,0.80
2022-11-25T02:20:11.097Z,0.80
2022-11-25T02:25:35.820Z,0.50
2022-11-25T02:30:58.322Z,0.33
2022-11-25T02:36:22.791Z,0.50
2022-11-25T02:41:49.782Z,0.35
2022-11-25T02:47:11.500Z,0.40
2022-11-25T02:52:33.153Z,0.43
2022-11-25T02:57:54.878Z,0.25
2022-11-25T03:03:16.960Z,0.60
2022-11-25T03:08:38.783Z,0.30
2022-11-25T03:14:00.480Z,0.47
2022-11-25T03:19:22.160Z,0.40
2022-11-25T03:24:43.898Z,0.47
2022-11-25T03:30:08.414Z,0.50
2022-11-25T03:35:30.042Z,0.30
2022-11-25T03:40:51.673Z,0.40
2022-11-25T03:46:13.466Z,0.30
2022-11-25T03:51:35.759Z,0.50
2022-11-25T03:56:57.419Z,0.30
2022-11-25T04:02:19.106Z,0.30
2022-11-25T04:07:40.931Z,0.43
2022-11-25T04:13:02.665Z,0.40
2022-11-25T04:18:24.363Z,0.25
2022-11-25T04:23:46.107Z,0.30
2022-11-25T04:29:07.777Z,0.35
2022-11-25T04:34:29.459Z,0.38
2022-11-25T04:39:51.163Z,0.40
2022-11-25T04:45:23.871Z,0.30
2022-11-25T04:50:45.851Z,0.40
2022-11-25T04:56:08.208Z,0.30
2022-11-25T05:01:30.098Z,0.32
2022-11-25T05:06:51.899Z,0.20
2022-11-25T05:12:19.765Z,0.20
2022-11-25T05:17:41.442Z,0.28
2022-11-25T05:23:03.128Z,0.20
2022-11-25T05:28:24.843Z,0.20
2022-11-25T05:33:46.497Z,0.22
2022-11-25T05:39:08.164Z,0.35
2022-11-25T05:44:29.853Z,0.20
2022-11-25T05:49:51.494Z,0.20
2022-11-25T05:55:13.215Z,0.38
2022-11-25T06:00:35.307Z,0.20
2022-11-25T06:05:58.237Z,0.13
2022-11-25T06:11:20.028Z,0.10
2022-11-25T06:16:42.401Z,0.10
2022-11-25T06:22:04.287Z,0.20
2022-11-25T06:27:26.193Z,0.32
2022-11-25T06:32:48.315Z,0.10
2022-11-25T06:38:10.120Z,0.10
2022-11-25T06:43:32.887Z,0.20
2022-11-25T06:48:54.672Z,0.25
2022-11-25T06:54:16.494Z,0.15
2022-11-25T06:59:38.527Z,0.20
2022-11-25T07:05:00.216Z,0.13
2022-11-25T07:10:22.308Z,0.10
2022-11-25T07:15:44.001Z,0.10
2022-11-25T07:21:14.817Z,0.10
2022-11-25T07:26:38.596Z,0.22
2022-11-25T07:32:02.427Z,0.17
2022-11-25T07:37:27.845Z,0.20
2022-11-25T07:42:49.570Z,0.28
2022-11-25T07:48:11.211Z,0.55
2022-11-25T07:53:32.981Z,0.20
2022-11-25T07:58:55.704Z,0.50
2022-11-25T08:04:20.490Z,0.40
2022-11-25T08:09:42.670Z,0.30
2022-11-25T08:15:04.565Z,0.40
2022-11-25T08:20:26.293Z,0.30
2022-11-25T08:25:50.615Z,0.40
2022-11-25T08:31:21.809Z,0.35
2022-11-25T08:36:47.962Z,0.30
2022-11-25T08:42:10.590Z,0.40
2022-11-25T08:47:32.260Z,0.38
2022-11-25T08:52:54.002Z,0.30
2022-11-25T08:58:15.745Z,2.50
2022-11-25T09:03:40.682Z,2.38
2022-11-25T09:09:02.853Z,2.80
2022-11-25T09:14:24.647Z,3.55
2022-11-25T09:19:46.413Z,2.90
2022-11-25T09:25:08.425Z,2.40
2022-11-25T09:30:30.289Z,2.80
2022-11-25T09:35:52.092Z,3.22
2022-11-25T09:42:14.421Z,2.25
2022-11-25T09:47:57.272Z,2.53
2022-11-25T09:53:42.207Z,2.33
2022-11-25T09:59:27.141Z,2.70
2022-11-25T10:05:01.544Z,2.60
2022-11-25T10:10:29.169Z,2.60
2022-11-25T10:15:52.356Z,2.03
2022-11-25T10:21:14.091Z,2.60
2022-11-25T10:26:40.344Z,1.85
2022-11-25T10:32:23.110Z,2.35
2022-11-25T10:37:46.245Z,2.47
2022-11-25T10:43:14.559Z,2.00
2022-11-25T10:48:44.345Z,1.90
2022-11-25T10:54:13.225Z,1.70
2022-11-25T10:59:40.875Z,1.88
2022-11-25T11:05:08.249Z,1.67
2022-11-25T11:10:29.921Z,1.25
2022-11-25T11:15:53.260Z,1.60
2022-11-25T11:21:34.738Z,1.63
2022-11-25T11:27:16.542Z,1.13
2022-11-25T11:32:42.489Z,1.58
2022-11-25T11:38:38.275Z,1.00
2022-11-25T11:44:54.369Z,1.38
2022-11-25T11:50:27.106Z,1.50
2022-11-25T11:56:19.063Z,1.60
2022-11-25T12:01:59.498Z,1.90
2022-11-25T12:07:32.933Z,1.63
2022-11-25T12:13:23.401Z,2.25
2022-11-25T12:18:56.779Z,2.08
2022-11-25T12:24:55.904Z,2.05
2022-11-25T12:30:22.973Z,2.08
2022-11-25T12:36:26.721Z,2.13
2022-11-25T12:42:04.845Z,1.52
2022-11-25T12:47:27.170Z,1.60
2022-11-25T12:53:03.346Z,1.60
2022-11-25T13:04:26.808Z,0.98
2022-11-25T13:10:00.353Z,1.33
2022-11-25T13:15:28.344Z,1.35
2022-11-25T13:20:52.137Z,1.00
2022-11-25T13:26:28.833Z,1.15
2022-11-25T13:32:05.574Z,1.10
2022-11-25T13:37:41.564Z,0.93
2022-11-25T13:43:03.417Z,0.82
2022-11-25T13:48:32.186Z,1.00
2022-11-25T13:54:01.310Z,1.20
2022-11-25T13:59:48.814Z,1.00
2022-11-25T14:05:32.166Z,0.98
2022-11-25T14:11:05.965Z,1.10
2022-11-25T14:16:45.998Z,1.00
2022-11-25T14:22:22.714Z,0.90
2022-11-25T14:27:50.889Z,0.82
2022-11-25T14:33:15.576Z,0.88
2022-11-25T14:38:46.108Z,1.17
2022-11-25T14:44:21.919Z,0.80
2022-11-25T14:55:37.014Z,1.45
2022-11-25T15:00:58.600Z,1.10
2022-11-25T15:06:21.229Z,1.63
2022-11-25T15:11:43.318Z,1.73
2022-11-25T15:17:27.937Z,1.80
2022-11-25T15:22:52.049Z,1.90
2022-11-25T15:28:16.905Z,1.98
2022-11-25T15:33:39.437Z,2.13
2022-11-25T15:39:33.648Z,2.17
2022-11-25T15:45:03.807Z,1.98
2022-11-25T15:50:32.726Z,1.92
2022-11-25T15:56:01.008Z,1.60
2022-11-25T16:01:24.652Z,1.80
2022-11-25T16:06:54.839Z,1.90
2022-11-25T16:12:17.897Z,1.63
2022-11-25T16:17:39.709Z,1.73
2022-11-25T16:23:07.129Z,1.77
2022-11-25T16:28:29.170Z,1.90
2022-11-25T16:34:09.540Z,1.73
2022-11-25T16:39:31.191Z,1.90
2022-11-25T16:44:52.940Z,1.70
2022-11-25T16:50:16.371Z,1.50
2022-11-25T16:55:39.952Z,1.90
2022-11-25T17:01:02.547Z,1.75
2022-11-25T17:06:26.462Z,1.40
2022-11-25T17:11:54.907Z,1.58
2022-11-25T17:17:24.452Z,1.40
2022-11-25T17:22:46.533Z,1.73
2022-11-25T17:28:15.332Z,1.60
2022-11-25T17:33:37.896Z,2.40
2022-11-25T17:38:59.691Z,1.65
2022-11-25T17:44:27.680Z,1.83
2022-11-25T17:49:49.746Z,2.03
2022-11-25T17:55:12.092Z,2.10
2022-11-25T18:00:35.152Z,13.85
2022-11-25T18:05:56.816Z,11.77
2022-11-25T18:11:20.495Z,12.75
2022-11-25T18:16:42.739Z,12.45
2022-11-25T18:22:18.763Z,11.43
2022-11-25T18:27:41.061Z,12.52
2022-11-25T18:33:05.673Z,11.57
2022-11-25T18:38:27.446Z,10.77
2022-11-25T18:43:49.250Z,9.25
2022-11-25T18:49:15.031Z,10.15
2022-11-25T18:54:36.876Z,9.32
2022-11-25T19:00:31.542Z,8.32
2022-11-25T19:05:40.344Z,8.50
2022-11-25T19:11:02.068Z,8.18
2022-11-25T19:16:24.501Z,8.45
2022-11-25T19:21:46.262Z,8.38
2022-11-25T19:27:17.725Z,7.85
2022-11-25T19:32:39.546Z,8.10
2022-11-25T19:38:01.560Z,7.35
2022-11-25T19:43:27.182Z,8.18
2022-11-25T19:48:49.036Z,6.43
2022-11-25T19:54:16.058Z,7.57
2022-11-25T19:59:37.932Z,6.47
2022-11-25T20:04:59.844Z,6.90
2022-11-25T20:10:27.621Z,6.57
2022-11-25T20:15:49.913Z,7.18
2022-11-25T20:21:21.120Z,8.80
2022-11-25T20:26:48.520Z,7.25
2022-11-25T20:32:22.631Z,9.02
2022-11-25T20:37:51.681Z,7.55
2022-11-25T20:43:23.636Z,7.18
2022-11-25T20:48:46.193Z,7.07
2022-11-25T20:54:11.812Z,7.18
2022-11-25T20:59:33.793Z,6.97
2022-11-25T21:04:55.525Z,6.43
2022-11-25T21:10:29.108Z,6.38
2022-11-25T21:15:54.757Z,5.70
2022-11-25T21:21:30.129Z,4.60
2022-11-25T21:26:52.366Z,4.30
2022-11-25T21:32:25.978Z,3.95
2022-11-25T21:37:47.891Z,4.78
2022-11-25T21:43:22.054Z,4.50
2022-11-25T21:48:44.019Z,5.22
2022-11-25T21:54:05.925Z,4.90
2022-11-25T21:59:30.188Z,4.22
2022-11-25T22:04:52.317Z,4.15
2022-11-25T22:10:16.364Z,4.13
2022-11-25T22:15:38.122Z,4.82
2022-11-25T22:20:59.819Z,4.55
2022-11-25T22:26:32.374Z,3.95
2022-11-25T22:31:54.070Z,3.42
2022-11-25T22:37:18.350Z,3.60
2022-11-25T22:42:42.819Z,2.92
2022-11-25T22:48:06.222Z,2.83
2022-11-25T22:53:28.475Z,2.60
2022-11-25T22:58:50.207Z,2.78
2022-11-25T23:04:20.002Z,2.85
2022-11-25T23:09:42.215Z,2.92
2022-11-25T23:15:04.130Z,2.78
2022-11-25T23:20:37.552Z,2.25
2022-11-25T23:25:59.708Z,2.00
2022-11-25T23:31:21.596Z,2.30
2022-11-25T23:36:46.466Z,2.00
2022-11-25T23:42:18.963Z,1.80
2022-11-25T23:47:42.435Z,1.85
2022-11-25T23:53:07.376Z,2.10
2022-11-25T23:58:29.247Z,1.67
